Time;durP1;ratioP1;P1;durP2;ratioP2;P2;SDS_P1;SDS_P2;PMS_P1;PMS_P2;Temp;Humidity;BMP_temperature;BMP_pressure;BME280_temperature;BME280_humidity;BME280_pressure;Samples;Min_cycle;Max_cycle;Signal;HPM_P1;HPM_P2
2022/01/18 00:00:37;;;;;;;11.45;7.05;;;4.30;79.60;;;2.49;86.54;97632.81;5000994;28;20032;-64
2022/01/18 00:03:03;;;;;;;11.18;7.22;;;4.20;80.60;;;2.46;87.04;97631.22;5011053;28;20058;-64
2022/01/18 00:05:28;;;;;;;12.32;7.63;;;4.20;80.60;;;2.44;86.78;97632.25;4977813;28;20033;-65
2022/01/18 00:07:54;;;;;;;11.35;7.80;;;4.20;81.00;;;2.42;87.55;97627.16;4993852;28;20034;-65
2022/01/18 00:10:22;;;;;;;11.75;7.88;;;4.10;81.30;;;2.40;87.83;97623.00;4994645;28;20165;-64
2022/01/18 00:15:56;;;;;;;11.68;7.93;;;4.20;81.40;;;2.40;89.21;97638.59;5010522;28;20034;-65
2022/01/18 00:18:22;;;;;;;10.48;7.47;;;4.20;81.40;;;2.37;88.43;97637.03;4982628;28;20038;-64
2022/01/18 00:23:17;;;;;;;12.25;7.47;;;4.10;81.30;;;2.35;88.65;97631.09;4977067;28;20072;-65
2022/01/18 00:25:46;;;;;;;10.48;7.32;;;4.10;81.70;;;2.34;88.30;97637.22;4972083;28;20029;-65
2022/01/18 00:28:12;;;;;;;13.73;8.50;;;4.20;81.60;;;2.33;88.93;97643.34;4994748;28;20057;-65
2022/01/18 00:35:41;;;;;;;10.15;7.30;;;4.10;82.00;;;2.31;89.41;97645.22;4994547;28;20042;-65
2022/01/18 00:40:51;;;;;;;11.60;8.25;;;4.10;82.10;;;2.31;89.37;97655.59;4958120;28;20211;-64
2022/01/18 00:43:18;;;;;;;11.57;7.70;;;4.10;81.90;;;2.32;89.68;97662.47;4933712;28;20546;-64
2022/01/18 00:45:44;;;;;;;11.85;7.72;;;4.10;81.90;;;2.33;89.79;97664.13;4937421;28;20121;-64
2022/01/18 00:48:11;;;;;;;10.55;7.47;;;4.10;81.60;;;2.35;89.94;97664.03;4965806;28;20451;-64
2022/01/18 00:50:37;;;;;;;13.48;8.38;;;4.20;81.40;;;2.33;89.90;97658.09;4950260;28;20034;-64
2022/01/18 00:53:06;;;;;;;13.15;7.93;;;4.20;81.50;;;2.34;89.85;97665.78;4959689;28;20410;-64
2022/01/18 00:55:36;;;;;;;12.07;7.60;;;4.10;81.60;;;2.35;89.35;97662.25;4951277;28;20182;-65
2022/01/18 00:58:02;;;;;;;11.05;7.43;;;4.10;81.60;;;2.36;89.83;97669.13;4930360;28;20043;-64
2022/01/18 01:00:27;;;;;;;13.10;7.78;;;4.20;81.40;;;2.37;90.04;97664.75;4945136;28;20114;-64
2022/01/18 01:02:53;;;;;;;11.73;7.88;;;4.20;81.50;;;2.37;89.55;97670.78;4947465;28;20035;-64
2022/01/18 01:05:19;;;;;;;10.77;7.53;;;4.30;81.20;;;2.39;89.31;97675.88;4929403;29;20039;-64
2022/01/18 01:07:44;;;;;;;12.25;8.32;;;4.30;81.10;;;2.40;89.83;97672.34;4950188;28;20028;-64
2022/01/18 01:10:10;;;;;;;11.02;7.95;;;4.30;81.00;;;2.42;89.66;97681.69;4943090;29;20526;-64
2022/01/18 01:12:36;;;;;;;10.85;7.53;;;4.30;80.70;;;2.42;89.62;97684.28;4962415;28;20038;-63
2022/01/18 01:15:09;;;;;;;13.88;8.32;;;4.30;80.80;;;2.43;89.86;97691.16;4965691;28;20051;-64
2022/01/18 01:18:35;;;;;;;12.30;8.00;;;4.40;80.60;;;2.46;89.69;97698.75;4942536;28;20063;-65
2022/01/18 01:34:39;;;;;;;11.88;7.57;;;4.40;80.40;;;2.46;89.47;97709.13;4931258;29;20055;-65
2022/01/18 01:42:26;;;;;;;13.45;8.32;;;4.40;80.40;;;2.51;89.76;97713.22;4922571;28;20122;-65
2022/01/18 01:44:52;;;;;;;11.48;8.43;;;4.50;80.40;;;2.53;89.82;97713.94;4962665;28;20474;-64
2022/01/18 01:47:21;;;;;;;11.35;7.93;;;4.50;80.50;;;2.52;89.90;97712.28;4933384;29;20039;-64
2022/01/18 01:49:49;;;;;;;12.57;8.10;;;4.50;80.60;;;2.53;89.62;97713.94;4932865;28;20106;-65
2022/01/18 01:52:15;;;;;;;12.95;8.02;;;4.50;80.40;;;2.53;89.92;97722.56;4949047;28;20062;-64
2022/01/18 01:54:41;;;;;;;12.95;8.27;;;4.50;80.30;;;2.54;90.00;97713.03;4909619;29;20485;-64
2022/01/18 01:57:07;;;;;;;12.05;8.60;;;4.60;80.30;;;2.54;90.07;97700.03;4931010;29;20043;-64
2022/01/18 01:59:33;;;;;;;15.25;9.30;;;4.50;80.30;;;2.55;89.89;97704.28;4879967;29;20046;-64
2022/01/18 02:01:58;;;;;;;13.73;8.48;;;4.60;80.50;;;2.54;90.30;97697.44;4922711;28;20609;-64
2022/01/18 02:04:24;;;;;;;13.70;9.07;;;4.60;80.70;;;2.56;90.27;97690.38;4913050;29;20547;-64
2022/01/18 02:06:50;;;;;;;14.20;8.90;;;4.60;80.70;;;2.54;90.73;97695.66;4931187;28;20106;-64
2022/01/18 02:09:18;;;;;;;16.50;8.85;;;4.60;81.20;;;2.53;90.61;97690.56;4898336;29;20043;-64
2022/01/18 02:11:44;;;;;;;14.18;9.73;;;4.50;81.50;;;2.53;91.25;97690.56;4929353;28;20032;-64
2022/01/18 02:14:16;;;;;;;13.75;9.43;;;4.50;81.60;;;2.52;91.12;97699.31;4913262;28;20039;-64
2022/01/18 02:22:11;;;;;;;14.77;9.60;;;4.30;82.00;;;2.42;91.36;97673.91;4947053;28;20061;-65
2022/01/18 02:24:36;;;;;;;15.02;10.05;;;4.20;82.30;;;2.41;91.26;97676.59;4934178;28;20504;-64
2022/01/18 02:27:02;;;;;;;15.85;9.77;;;4.20;82.50;;;2.40;91.82;97675.78;4942345;29;20083;-64
2022/01/18 02:29:28;;;;;;;16.70;10.20;;;4.30;82.40;;;2.39;91.81;97678.47;4948186;28;20086;-65
2022/01/18 02:31:55;;;;;;;15.63;9.90;;;4.30;82.40;;;2.37;92.18;97675.97;4931514;29;20039;-65
2022/01/18 02:34:21;;;;;;;15.68;9.65;;;4.20;82.60;;;2.33;92.08;97674.53;4943945;28;20043;-64
2022/01/18 02:36:47;;;;;;;15.73;10.15;;;4.20;82.90;;;2.34;92.32;97671.00;4938512;29;20035;-64
2022/01/18 02:39:13;;;;;;;18.83;10.20;;;4.20;82.70;;;2.32;92.38;97672.84;4940315;28;20039;-65
2022/01/18 02:41:39;;;;;;;13.82;10.10;;;4.10;82.80;;;2.31;92.64;97673.78;4947347;29;20384;-65
2022/01/18 02:44:09;;;;;;;16.70;10.50;;;4.10;83.10;;;2.31;92.64;97673.78;4932371;28;20038;-65
2022/01/18 02:46:34;;;;;;;16.10;11.13;;;4.10;83.30;;;2.30;92.66;97682.50;4914014;29;20470;-65
2022/01/18 02:49:01;;;;;;;15.40;10.18;;;4.10;83.20;;;2.30;92.58;97682.50;4949261;28;20044;-65
2022/01/18 02:51:27;;;;;;;15.45;10.65;;;4.20;82.90;;;2.30;92.59;97685.09;4952547;28;20450;-65
2022/01/18 02:54:03;;;;;;;16.30;10.70;;;4.10;83.00;;;2.30;93.65;97685.09;4936718;28;20109;-64
2022/01/18 02:56:36;;;;;;;16.73;10.90;;;4.20;82.90;;;2.32;93.33;97693.63;4953228;28;20028;-64
2022/01/18 02:59:17;;;;;;;15.52;10.90;;;4.20;83.10;;;2.33;92.81;97694.47;4967793;28;20047;-64
2022/01/18 03:04:27;;;;;;;17.00;11.18;;;4.20;83.00;;;2.32;93.05;97693.63;4938520;28;20038;-64
2022/01/18 03:06:53;;;;;;;17.38;11.95;;;4.20;83.20;;;2.30;93.27;97695.50;4952498;28;20055;-64
2022/01/18 03:09:19;;;;;;;22.67;15.07;;;4.20;83.20;;;2.30;93.34;97689.47;4952002;28;20027;-65
2022/01/18 03:11:44;;;;;;;26.98;16.92;;;4.10;83.90;;;2.29;94.01;97686.03;4951894;28;20070;-65
2022/01/18 03:14:10;;;;;;;21.40;14.50;;;4.10;84.20;;;2.29;93.92;97691.22;4964624;28;20039;-65
2022/01/18 03:16:36;;;;;;;19.95;12.55;;;4.10;84.40;;;2.32;93.83;97687.59;4947520;28;20068;-65
2022/01/18 03:19:02;;;;;;;23.60;16.08;;;4.20;84.00;;;2.35;94.24;97698.63;4903387;29;20051;-65
2022/01/18 03:21:27;;;;;;;30.95;19.75;;;4.20;83.80;;;2.36;93.97;97704.66;4938388;29;20431;-65
2022/01/18 03:24:09;;;;;;;18.73;12.48;;;4.30;83.70;;;2.37;93.98;97706.31;4938378;29;20495;-65
2022/01/18 03:28:03;;;;;;;18.52;11.80;;;4.30;83.50;;;2.38;94.00;97697.59;4924129;29;20027;-65
2022/01/18 03:29:22;;;;;;;16.30;12.05;;;4.30;83.40;;;2.36;93.73;97705.47;4951989;28;20050;-65
2022/01/18 03:31:48;;;;;;;22.48;14.82;;;4.20;83.50;;;2.38;94.10;97703.63;4951276;28;20035;-65
2022/01/18 03:34:13;;;;;;;21.25;14.23;;;4.30;83.50;;;2.39;94.30;97700.09;4951698;28;20039;-65
2022/01/18 03:36:39;;;;;;;21.90;14.45;;;4.30;83.40;;;2.40;94.42;97712.13;4919963;29;20114;-65
2022/01/18 03:39:05;;;;;;;26.77;17.27;;;4.40;83.70;;;2.43;94.72;97708.50;4935785;29;20495;-65
2022/01/18 03:41:31;;;;;;;21.27;14.50;;;4.40;83.80;;;2.46;94.44;97711.72;4953032;28;20039;-65
2022/01/18 03:43:56;;;;;;;31.17;20.08;;;4.50;83.80;;;2.50;94.57;97711.56;4951068;28;20330;-63
2022/01/18 03:46:24;;;;;;;27.92;18.73;;;4.60;83.70;;;2.53;94.60;97711.34;4951043;28;20063;-63
2022/01/18 03:48:51;;;;;;;32.53;23.00;;;4.60;83.30;;;2.54;94.37;97707.81;4935951;29;20086;-65
2022/01/18 03:51:17;;;;;;;25.10;16.27;;;4.50;83.30;;;2.51;94.11;97703.66;4951403;28;20586;-63
2022/01/18 03:53:43;;;;;;;20.42;14.15;;;4.30;83.40;;;2.50;94.36;97701.16;4919121;29;20077;-63
2022/01/18 03:56:08;;;;;;;19.08;12.55;;;4.30;83.40;;;2.46;94.44;97706.53;4933950;28;20063;-64
2022/01/18 03:58:34;;;;;;;21.88;13.45;;;4.30;83.70;;;2.46;94.04;97719.53;4950809;28;20115;-64
2022/01/18 04:01:00;;;;;;;18.60;12.80;;;4.30;83.60;;;2.47;94.08;97717.75;4949703;28;20586;-64
2022/01/18 04:03:26;;;;;;;21.55;13.90;;;4.30;83.20;;;2.46;94.55;97722.13;4934762;29;20074;-64
2022/01/18 04:05:52;;;;;;;20.80;13.80;;;4.30;83.60;;;2.45;94.13;97717.03;4915919;28;20121;-64
2022/01/18 04:08:20;;;;;;;47.33;30.77;;;4.30;83.70;;;2.49;94.66;97722.84;4963492;28;20099;-64
2022/01/18 04:10:46;;;;;;;31.15;20.08;;;4.40;84.00;;;2.51;94.76;97732.25;4936905;28;20055;-64
2022/01/18 04:13:11;;;;;;;23.70;16.15;;;4.40;83.70;;;2.52;94.53;97720.09;4934766;29;20114;-64
2022/01/18 04:15:37;;;;;;;24.38;15.32;;;4.30;83.80;;;2.47;94.40;97718.59;4929909;28;20368;-64
2022/01/18 04:28:53;;;;;;;22.20;14.73;;;4.50;82.80;;;2.46;94.04;97723.88;4911486;29;20035;-63
2022/01/18 04:31:19;;;;;;;24.60;15.10;;;4.50;82.40;;;2.42;94.32;97720.66;4932048;29;20110;-62
2022/01/18 04:33:45;;;;;;;23.15;15.15;;;4.40;82.60;;;2.38;93.85;97714.00;4949272;28;20035;-65
2022/01/18 04:36:10;;;;;;;23.73;15.27;;;4.30;82.50;;;2.34;93.97;97722.94;4929321;28;20063;-66
2022/01/18 04:38:36;;;;;;;22.38;14.88;;;4.30;82.60;;;2.29;93.83;97725.00;4954065;28;20070;-67
2022/01/18 04:41:07;;;;;;;23.67;14.35;;;4.20;82.60;;;2.26;93.50;97732.94;4953068;28;20559;-69
2022/01/18 04:43:50;;;;;;;24.45;15.82;;;4.20;82.40;;;2.21;93.85;97742.78;4919625;29;20498;-66
2022/01/18 04:49:00;;;;;;;23.63;15.18;;;4.10;82.30;;;2.08;93.38;97731.53;4923399;29;20065;-66
2022/01/18 04:51:26;;;;;;;23.23;15.05;;;4.10;82.20;;;2.06;93.08;97741.19;4933565;29;20062;-67
2022/01/18 04:53:55;;;;;;;23.23;15.10;;;4.00;82.20;;;2.02;93.43;97740.50;4931972;28;20513;-64
2022/01/18 04:59:10;;;;;;;21.55;14.52;;;4.00;82.30;;;1.91;93.05;97749.91;4894215;29;20064;-64
2022/01/18 05:01:37;;;;;;;24.92;14.93;;;3.90;82.00;;;1.87;93.54;97745.84;4934889;29;20032;-64
2022/01/18 05:04:03;;;;;;;25.35;15.18;;;3.90;82.10;;;1.82;92.95;97752.16;4894007;28;20039;-64
2022/01/18 05:06:29;;;;;;;24.30;14.88;;;3.80;82.00;;;1.77;93.43;97748.97;4914352;29;20028;-64
2022/01/18 05:08:56;;;;;;;25.25;15.27;;;3.80;81.90;;;1.73;93.17;97757.88;4914137;29;20563;-64
2022/01/18 05:11:24;;;;;;;25.13;16.00;;;3.70;81.90;;;1.67;92.94;97758.28;4931399;28;20127;-64
2022/01/18 05:23:54;;;;;;;26.02;14.93;;;3.50;81.90;;;1.46;92.83;97754.38;4898005;28;20353;-64
2022/01/18 05:26:21;;;;;;;28.58;15.38;;;3.50;81.90;;;1.43;93.32;97751.97;4913876;29;20118;-64
2022/01/18 05:28:46;;;;;;;24.95;14.68;;;3.40;82.00;;;1.41;92.59;97753.81;4913916;29;20058;-64
2022/01/18 05:31:12;;;;;;;24.15;14.73;;;3.40;82.50;;;1.37;93.10;97749.75;4931488;28;20135;-64
2022/01/18 05:33:42;;;;;;;25.02;14.02;;;3.40;82.10;;;1.33;93.13;97754.25;4897841;29;20566;-64
2022/01/18 05:36:09;;;;;;;25.90;15.63;;;3.30;82.10;;;1.28;93.14;97756.28;4913726;28;20052;-64
2022/01/18 05:38:35;;;;;;;28.77;16.15;;;3.30;82.20;;;1.25;93.14;97758.25;4932529;29;20554;-64
2022/01/18 05:41:06;;;;;;;24.38;15.18;;;3.20;83.30;;;1.20;93.89;97761.94;4931010;28;20138;-64
2022/01/18 05:43:32;;;;;;;24.98;14.52;;;3.20;83.00;;;1.16;93.57;97768.25;4929489;29;20500;-66
2022/01/18 05:45:58;;;;;;;23.95;14.70;;;3.10;82.60;;;1.15;93.18;97776.09;4913124;28;20099;-65
2022/01/18 05:48:23;;;;;;;25.42;15.32;;;3.10;82.90;;;1.10;92.62;97773.75;4929065;29;20062;-65
2022/01/18 05:50:49;;;;;;;25.77;14.75;;;3.10;82.60;;;1.07;93.61;97773.94;4913990;29;20114;-65
2022/01/18 05:53:15;;;;;;;27.80;16.20;;;3.10;82.60;;;1.03;93.41;97777.63;4927398;29;20054;-65
2022/01/18 05:55:41;;;;;;;25.58;16.27;;;3.00;82.70;;;1.01;93.29;97778.66;4940069;28;20038;-64
2022/01/18 05:58:07;;;;;;;26.98;17.50;;;3.00;83.20;;;0.97;93.99;97775.41;4943299;28;20082;-64
2022/01/18 06:00:33;;;;;;;30.00;19.00;;;2.90;83.50;;;0.94;94.38;97774.75;4927481;28;20127;-63
2022/01/18 06:03:01;;;;;;;34.45;19.75;;;2.90;83.80;;;0.92;94.47;97780.03;4958787;28;20069;-64
2022/01/18 06:08:12;;;;;;;28.77;17.42;;;2.90;83.60;;;0.92;94.10;97780.03;4946697;28;20046;-63
2022/01/18 06:10:38;;;;;;;30.00;18.48;;;3.00;83.90;;;0.93;94.87;97784.28;4946476;28;20107;-64
2022/01/18 06:13:04;;;;;;;51.30;32.08;;;3.00;83.80;;;0.94;94.52;97788.53;4947487;28;20042;-65
2022/01/18 06:15:30;;;;;;;66.43;41.47;;;3.10;84.50;;;0.96;95.40;97784.09;4916189;29;20519;-65
2022/01/18 06:17:56;;;;;;;60.20;38.40;;;3.10;85.00;;;0.99;95.87;97781.34;4963732;28;20039;-65
2022/01/18 06:20:22;;;;;;;56.67;39.33;;;3.10;84.60;;;1.00;95.08;97788.19;4947533;28;20534;-65
2022/01/18 06:22:51;;;;;;;34.33;21.60;;;3.10;83.90;;;0.99;95.54;97790.88;4947708;28;20031;-66
2022/01/18 06:25:20;;;;;;;30.90;18.90;;;3.10;83.20;;;0.93;94.36;97797.25;4963226;28;20050;-63
2022/01/18 06:27:46;;;;;;;30.98;18.58;;;3.00;82.90;;;0.91;94.26;97799.09;4949314;28;20035;-65
2022/01/18 06:30:12;;;;;;;30.48;18.83;;;3.00;82.80;;;0.89;94.85;97808.69;4931248;28;20035;-65
2022/01/18 06:32:38;;;;;;;27.40;17.40;;;2.90;82.70;;;0.84;94.41;97802.94;4931703;28;20384;-66
2022/01/18 06:35:06;;;;;;;28.13;18.13;;;2.90;82.40;;;0.80;94.08;97809.22;4946183;28;20058;-63
2022/01/18 06:37:32;;;;;;;30.65;17.38;;;2.80;82.40;;;0.76;94.10;97815.50;4916351;29;20261;-64
2022/01/18 06:39:59;;;;;;;30.17;17.85;;;2.80;82.80;;;0.73;94.88;97826.84;4939436;28;20200;-65
2022/01/18 06:42:25;;;;;;;30.63;17.27;;;2.70;83.40;;;0.73;94.46;97836.38;4925319;28;20043;-66
2022/01/18 06:44:51;;;;;;;25.42;16.27;;;2.70;83.40;;;0.72;94.53;97829.53;4923375;28;20101;-67
2022/01/18 06:47:17;;;;;;;28.27;16.67;;;2.70;83.10;;;0.69;94.38;97835.72;4947269;28;20482;-66
2022/01/18 06:49:43;;;;;;;28.73;16.90;;;2.70;83.00;;;0.68;94.42;97838.38;4914756;29;20042;-66
2022/01/18 06:52:09;;;;;;;26.70;16.35;;;2.80;82.90;;;0.67;94.88;97836.69;4930576;28;20067;-63
2022/01/18 06:54:34;;;;;;;28.27;17.35;;;2.80;83.00;;;0.66;94.24;97846.22;4962396;28;20483;-64
2022/01/18 06:57:00;;;;;;;27.45;15.95;;;2.80;82.90;;;0.66;94.64;97855.75;4962958;28;20496;-63
2022/01/18 06:59:26;;;;;;;27.27;16.45;;;2.70;82.90;;;0.66;93.90;97860.94;4962270;28;20443;-63
2022/01/18 07:01:52;;;;;;;27.70;15.95;;;2.70;83.00;;;0.65;93.67;97860.09;4961714;28;20036;-65
2022/01/18 07:04:17;;;;;;;28.17;15.63;;;2.70;82.70;;;0.64;94.26;97853.25;4946682;28;20495;-65
2022/01/18 07:06:45;;;;;;;26.95;15.85;;;2.80;82.70;;;0.64;94.57;97862.78;4912930;29;20487;-65
2022/01/18 07:09:12;;;;;;;25.30;15.23;;;2.70;82.60;;;0.63;94.54;97853.34;4943536;28;20032;-65
2022/01/18 07:11:38;;;;;;;24.98;15.73;;;2.70;82.50;;;0.63;94.53;97866.28;4944785;28;20046;-67
2022/01/18 07:14:03;;;;;;;29.25;16.42;;;2.80;82.60;;;0.65;94.66;97864.44;4962481;28;20053;-66
2022/01/18 07:16:29;;;;;;;27.58;16.52;;;2.80;82.70;;;0.67;93.84;97868.63;4946306;28;20035;-67
2022/01/18 07:18:55;;;;;;;33.13;17.65;;;2.80;82.70;;;0.69;94.44;97865.97;4930824;29;20038;-67
2022/01/18 07:21:20;;;;;;;33.85;19.88;;;2.80;83.20;;;0.72;94.82;97866.63;4946245;28;20036;-67
2022/01/18 07:23:46;;;;;;;33.42;19.45;;;2.90;83.60;;;0.77;94.94;97863.78;4946800;29;20123;-65
2022/01/18 07:26:12;;;;;;;30.55;18.13;;;3.00;83.20;;;0.82;95.62;97866.94;4958796;28;20102;-67
2022/01/18 07:28:38;;;;;;;31.40;19.10;;;3.10;83.10;;;0.87;95.86;97875.28;4947762;28;20491;-66
2022/01/18 07:31:03;;;;;;;33.92;19.75;;;3.10;83.10;;;0.93;95.28;97877.56;4944382;28;20464;-66
2022/01/18 07:33:29;;;;;;;32.13;19.83;;;3.20;83.20;;;0.96;95.49;97879.97;4947696;28;20137;-66
2022/01/18 07:35:55;;;;;;;32.63;19.60;;;3.20;83.40;;;1.01;96.16;97887.47;4917136;28;20344;-67
2022/01/18 07:38:21;;;;;;;37.45;21.33;;;3.20;83.40;;;1.05;95.69;97887.22;4949000;28;20055;-66
2022/01/18 07:40:48;;;;;;;34.88;20.15;;;3.30;83.70;;;1.11;96.81;97883.44;4948549;28;20027;-68
2022/01/18 07:43:18;;;;;;;33.30;19.38;;;3.40;83.80;;;1.14;96.49;97884.13;4949372;28;20035;-67
2022/01/18 07:45:45;;;;;;;30.10;18.38;;;3.40;83.70;;;1.20;96.61;97894.13;4934525;29;20036;-65
2022/01/18 07:48:11;;;;;;;34.38;19.85;;;3.40;83.60;;;1.23;96.75;97899.16;4933733;28;20035;-69
2022/01/18 07:50:41;;;;;;;34.10;18.98;;;3.50;83.50;;;1.28;96.31;97908.41;4949655;28;20030;-66
2022/01/18 07:53:06;;;;;;;32.22;19.27;;;3.50;83.40;;;1.33;96.61;97908.97;4946407;28;20302;-64
2022/01/18 07:55:32;;;;;;;34.55;19.48;;;3.60;83.50;;;1.37;96.48;97898.38;4962066;28;20036;-64
2022/01/18 07:57:59;;;;;;;35.47;20.05;;;3.60;83.50;;;1.42;96.23;97898.09;4941550;28;20042;-65
2022/01/18 08:00:25;;;;;;;33.33;19.40;;;3.70;83.30;;;1.47;96.45;97903.84;4944758;28;20043;-64
2022/01/18 08:02:51;;;;;;;35.05;20.67;;;3.80;83.10;;;1.52;96.26;97904.41;4932859;28;20090;-65
2022/01/18 08:05:18;;;;;;;35.58;20.20;;;3.80;83.20;;;1.56;97.01;97903.31;4951298;28;20530;-66
2022/01/18 08:07:43;;;;;;;38.10;23.35;;;3.90;83.00;;;1.59;96.41;97908.34;4933285;28;20066;-66
2022/01/18 08:10:11;;;;;;;34.42;21.75;;;3.90;82.80;;;1.62;96.76;97905.56;4933270;28;20043;-66
2022/01/18 08:12:37;;;;;;;34.33;20.30;;;3.90;82.70;;;1.67;96.37;97913.91;4933313;29;20503;-66
2022/01/18 08:15:12;;;;;;;32.50;19.83;;;3.90;82.60;;;1.72;96.34;97901.50;4933523;29;20199;-66
2022/01/18 08:17:40;;;;;;;32.30;20.13;;;4.00;82.70;;;1.76;96.60;97907.34;4935494;29;20042;-66
2022/01/18 08:20:06;;;;;;;32.75;19.35;;;4.10;82.60;;;1.79;96.23;97910.59;4916925;28;20039;-68
2022/01/18 08:22:32;;;;;;;30.65;18.83;;;4.10;82.30;;;1.85;96.74;97909.41;4949208;29;20419;-66
2022/01/18 08:24:58;;;;;;;32.58;18.75;;;4.20;82.20;;;1.89;96.70;97912.66;4950970;28;20066;-65
2022/01/18 08:27:23;;;;;;;33.88;19.73;;;4.20;82.10;;;1.94;96.59;97911.44;4933303;29;20035;-66
2022/01/18 08:29:49;;;;;;;30.63;19.85;;;4.30;81.90;;;1.98;96.10;97906.91;4916732;28;20046;-66
2022/01/18 08:32:16;;;;;;;35.72;21.02;;;4.30;82.00;;;2.02;96.28;97908.38;4962096;28;20088;-66
2022/01/18 08:34:42;;;;;;;33.63;18.88;;;4.30;82.00;;;2.07;96.14;97911.56;4930159;28;20042;-67
2022/01/18 08:37:07;;;;;;;31.77;18.58;;;4.50;81.60;;;2.10;96.05;97909.63;4952244;28;20039;-65
2022/01/18 08:39:33;;;;;;;31.85;17.95;;;4.40;81.30;;;2.16;95.78;97916.19;4947143;28;20035;-66
2022/01/18 08:41:59;;;;;;;32.08;18.38;;;4.50;81.30;;;2.20;96.03;97920.28;4947920;28;20043;-67
2022/01/18 08:44:25;;;;;;;31.85;18.95;;;4.60;81.30;;;2.26;95.71;97916.47;4916008;28;20389;-65
2022/01/18 08:46:51;;;;;;;34.15;20.45;;;4.70;80.90;;;2.29;95.56;97917.13;4949216;28;20035;-66
2022/01/18 08:49:16;;;;;;;30.65;18.63;;;4.60;80.60;;;2.35;95.60;97921.94;4932913;28;20387;-67
2022/01/18 08:51:42;;;;;;;30.40;18.58;;;4.80;80.20;;;2.41;95.09;97929.34;4932113;28;20058;-68
2022/01/18 08:54:08;;;;;;;30.33;17.35;;;4.90;80.10;;;2.47;95.06;97928.97;4952987;28;20032;-66
2022/01/18 08:56:33;;;;;;;26.85;16.77;;;4.90;79.90;;;2.54;94.95;97920.81;4947505;28;20055;-66
2022/01/18 08:58:59;;;;;;;27.77;16.95;;;5.00;79.70;;;2.61;95.07;97914.31;4948835;28;20060;-64
2022/01/18 09:01:25;;;;;;;28.13;16.63;;;5.10;79.40;;;2.67;94.92;97927.75;4948119;28;20161;-60
2022/01/18 09:03:51;;;;;;;28.13;16.95;;;5.20;79.60;;;2.73;94.74;97934.34;4948439;28;20119;-64
2022/01/18 09:06:18;;;;;;;27.88;16.23;;;5.20;79.50;;;2.77;94.51;97933.22;4948503;29;20547;-63
2022/01/18 09:08:45;;;;;;;27.77;16.83;;;5.20;79.50;;;2.82;94.17;97931.16;4944756;28;20499;-63
2022/01/18 09:11:11;;;;;;;22.63;15.68;;;5.20;79.00;;;2.82;94.13;97925.97;4957320;28;20039;-64
2022/01/18 09:13:38;;;;;;;28.10;16.92;;;5.10;78.80;;;2.84;93.55;97929.31;4915051;29;20126;-63
2022/01/18 09:16:06;;;;;;;25.38;16.38;;;5.10;79.20;;;2.87;93.94;97929.13;4916308;28;20057;-63
2022/01/18 09:18:32;;;;;;;24.20;16.05;;;5.20;79.40;;;2.91;94.09;97935.78;4959063;28;20102;-66
2022/01/18 09:20:58;;;;;;;26.20;15.98;;;5.20;79.40;;;2.97;93.71;97935.41;4932476;29;20031;-63
2022/01/18 09:23:24;;;;;;;23.98;15.25;;;5.30;78.90;;;2.99;93.47;97940.53;4930312;29;20062;-63
2022/01/18 09:25:50;;;;;;;25.23;15.95;;;5.30;79.20;;;2.99;93.42;97938.75;4935536;28;20090;-68
2022/01/18 09:28:16;;;;;;;23.73;16.13;;;5.30;78.80;;;3.01;93.12;97947.28;4948267;28;20479;-64
2022/01/18 09:30:41;;;;;;;26.60;15.98;;;5.20;79.00;;;3.03;93.07;97949.78;4948326;29;20107;-63
2022/01/18 09:33:07;;;;;;;28.92;17.38;;;5.30;78.70;;;3.10;92.98;97955.44;4932708;29;20542;-68
2022/01/18 09:35:35;;;;;;;24.42;16.40;;;5.40;78.60;;;3.12;92.63;97953.56;4947849;28;20125;-64
2022/01/18 09:38:01;;;;;;;28.65;16.95;;;5.40;78.20;;;3.15;92.69;97953.38;4947157;28;20035;-65
2022/01/18 09:40:27;;;;;;;26.55;17.15;;;5.50;78.00;;;3.20;92.20;97946.13;4947699;28;20462;-64
2022/01/18 09:42:57;;;;;;;29.38;18.02;;;5.60;78.20;;;3.25;92.38;97949.25;4949517;28;20036;-67
2022/01/18 09:45:26;;;;;;;26.65;18.52;;;5.70;78.20;;;3.31;92.72;97954.06;4932235;28;20415;-65
2022/01/18 09:47:53;;;;;;;25.92;18.02;;;5.70;77.80;;;3.36;92.64;97939.81;4947710;28;20101;-65
2022/01/18 09:50:29;;;;;;;28.67;17.73;;;5.90;77.60;;;3.47;92.55;97949.56;4916006;29;20046;-63
2022/01/18 09:52:56;;;;;;;27.10;17.35;;;6.10;77.50;;;3.56;92.74;97948.09;4914087;29;20067;-65
2022/01/18 09:55:26;;;;;;;27.65;18.35;;;6.10;76.80;;;3.66;92.03;97939.63;4933041;29;20090;-66
2022/01/18 09:57:53;;;;;;;27.38;18.13;;;6.30;76.50;;;3.75;92.20;97948.56;4948346;28;20098;-63
2022/01/18 10:00:20;;;;;;;26.63;16.55;;;6.50;76.00;;;3.87;91.59;97949.53;4931977;29;20134;-65
2022/01/18 10:02:46;;;;;;;23.80;16.25;;;6.60;75.80;;;3.97;91.34;97947.97;4932857;29;20514;-66
2022/01/18 10:05:29;;;;;;;23.05;14.18;;;6.60;75.50;;;4.05;90.42;97940.47;4948235;28;20046;-63
2022/01/18 10:08:07;;;;;;;22.73;14.95;;;6.60;74.80;;;4.09;90.93;97938.53;4917263;28;20063;-64
2022/01/18 10:10:46;;;;;;;24.63;15.85;;;6.60;74.60;;;4.16;89.44;97945.81;4949328;28;20046;-63
2022/01/18 10:13:20;;;;;;;21.98;14.90;;;6.80;74.10;;;4.26;89.64;97933.81;4948094;28;20035;-64
2022/01/18 10:16:08;;;;;;;21.60;13.75;;;7.00;73.40;;;4.39;87.89;97927.78;4963872;28;20043;-64
2022/01/18 10:18:48;;;;;;;21.45;14.68;;;7.20;72.30;;;4.50;88.83;97933.06;4962778;28;20023;-65
2022/01/18 10:21:44;;;;;;;23.40;14.50;;;7.20;72.90;;;4.64;88.60;97924.31;4947966;28;20035;-64
2022/01/18 10:24:26;;;;;;;22.05;14.60;;;7.50;72.50;;;4.82;87.38;97925.63;4933388;28;20039;-60
2022/01/18 10:26:53;;;;;;;19.00;14.80;;;7.90;71.30;;;4.97;88.87;97928.91;4932623;29;20534;-64
2022/01/18 10:29:26;;;;;;;22.20;15.52;;;8.20;69.90;;;5.11;86.67;97920.94;4939920;28;20035;-65
2022/01/18 10:37:20;;;;;;;20.05;8.07;;;8.50;66.60;;;5.55;81.07;97904.66;4942606;28;20032;-65
2022/01/18 10:39:53;;;;;;;17.33;7.20;;;8.70;64.80;;;5.66;81.57;97909.06;4949024;28;20300;-66
2022/01/18 10:42:25;;;;;;;17.60;8.45;;;8.80;64.60;;;5.79;83.27;97904.59;4959121;28;20035;-66
2022/01/18 10:45:13;;;;;;;14.07;7.88;;;9.00;64.30;;;5.96;80.68;97903.38;4947713;28;20122;-67
2022/01/18 10:47:50;;;;;;;17.17;8.50;;;9.40;63.20;;;6.17;79.85;97895.69;4941359;28;20036;-64
2022/01/18 10:50:17;;;;;;;13.40;8.18;;;9.90;60.90;;;6.40;81.09;97894.75;4960116;28;20046;-64
2022/01/18 10:52:42;;;;;;;17.67;8.10;;;10.40;59.10;;;6.67;80.28;97889.16;4951038;28;20175;-65
2022/01/18 10:55:21;;;;;;;14.60;6.80;;;11.30;57.10;;;6.93;75.97;97871.38;4914203;29;20152;-67
2022/01/18 10:57:46;;;;;;;13.68;7.32;;;11.70;54.20;;;7.19;78.72;97875.34;4932057;28;20062;-67
2022/01/18 11:00:22;;;;;;;14.23;7.47;;;12.10;52.80;;;7.45;75.92;97867.16;4947169;28;20149;-64
2022/01/18 11:02:53;;;;;;;11.60;7.07;;;11.90;53.60;;;7.60;76.06;97869.34;4945857;28;20225;-67
2022/01/18 11:05:25;;;;;;;15.55;7.28;;;11.80;53.80;;;7.76;76.44;97861.06;4916175;29;20115;-66
2022/01/18 11:07:51;;;;;;;17.35;7.90;;;12.00;53.20;;;7.89;76.14;97856.44;4947114;28;20114;-67
2022/01/18 11:10:24;;;;;;;13.18;7.15;;;11.90;53.10;;;8.02;74.17;97858.88;4931104;29;20039;-66
2022/01/18 11:13:04;;;;;;;10.07;5.97;;;12.10;53.30;;;8.19;71.41;97858.25;4952040;28;20039;-67
2022/01/18 11:15:32;;;;;;;10.90;6.20;;;12.80;50.40;;;8.42;73.39;97851.09;4963212;28;20508;-66
2022/01/18 11:17:58;;;;;;;8.13;3.97;;;13.40;49.00;;;8.66;72.10;97855.16;4932121;29;20518;-66
2022/01/18 11:20:26;;;;;;;9.27;3.30;;;13.80;44.60;;;8.87;70.78;97845.41;4944220;28;20161;-67
2022/01/18 11:22:52;;;;;;;10.27;3.38;;;13.70;44.50;;;9.01;69.41;97847.63;4950588;28;20042;-67
2022/01/18 11:25:18;;;;;;;10.25;3.67;;;13.60;44.50;;;9.06;68.82;97840.19;4958548;28;20039;-67
2022/01/18 11:27:48;;;;;;;10.25;4.57;;;13.10;45.60;;;9.12;67.40;97829.13;4950993;29;20042;-68
2022/01/18 11:30:15;;;;;;;10.07;4.83;;;13.00;45.50;;;9.11;67.28;97832.72;4920210;28;20043;-67
2022/01/18 11:32:41;;;;;;;9.52;3.80;;;12.70;46.70;;;9.12;66.78;97834.38;4947894;29;20036;-66
2022/01/18 11:35:32;;;;;;;8.80;3.88;;;12.60;47.80;;;9.07;63.72;97827.91;4943931;28;20066;-67
2022/01/18 11:38:07;;;;;;;6.97;3.23;;;12.20;46.30;;;8.98;62.52;97832.16;4946057;28;20503;-66